<?xml version='1.0' encoding='UTF-8'?>
<gpx xmlns="http://www.topografix.com/GPX/1/1" creator="www.balnam.be" version="1.1" xmlns:xsi="http://www.w3.org/2001/XMLSchema-instance" xsi:schemaLocation="http://www.topografix.com/GPX/1/1 http://www.topografix.com/GPX/1/1/gpx.xsd">
<trk>
<name>nslbl5</name>
<cmt>r</cmt>
<desc>Baillonville Chemin n°5 Rue du Centre / Haie-des-Biches</desc>
<link href="https://chemins.be/baillonville/chemin/5"/><trkseg>
<trkpt lat="50.282614" lon="5.339561"><time>2026-05-02T18:49:57Z</time></trkpt>
<trkpt lat="50.281823" lon="5.339587"><time>2026-05-02T18:59:57Z</time></trkpt>
<trkpt lat="50.280529" lon="5.340473"><time>2026-05-02T19:09:57Z</time></trkpt>
<trkpt lat="50.279438" lon="5.340829"><time>2026-05-02T19:19:57Z</time></trkpt>
<trkpt lat="50.279506" lon="5.341392"><time>2026-05-02T19:29:57Z</time></trkpt>
<trkpt lat="50.279106" lon="5.342927"><time>2026-05-02T19:39:57Z</time></trkpt>
<trkpt lat="50.279178" lon="5.344009"><time>2026-05-02T19:49:57Z</time></trkpt>
<trkpt lat="50.277517" lon="5.348016"><time>2026-05-02T19:59:57Z</time></trkpt>
</trkseg></trk>
<trk>
<name>nslbl5</name>
<cmt>v</cmt>
<desc>Baillonville Chemin n°5 Rue du Centre / Haie-des-Biches</desc>
<link href="https://chemins.be/baillonville/chemin/5"/><trkseg>
<trkpt lat="50.277517" lon="5.348016"><time>2026-05-02T19:59:57Z</time></trkpt>
<trkpt lat="50.276550" lon="5.350662"><time>2026-05-02T20:09:57Z</time></trkpt>
</trkseg></trk>
<trk>
<name>nslbl5</name>
<cmt>b</cmt>
<desc>Baillonville Chemin n°5 Rue du Centre / Haie-des-Biches</desc>
<link href="https://chemins.be/baillonville/chemin/5"/><trkseg>
<trkpt lat="50.276550" lon="5.350662"><time>2026-05-02T20:09:57Z</time></trkpt>
<trkpt lat="50.276098" lon="5.352083"><time>2026-05-02T20:19:57Z</time></trkpt>
<trkpt lat="50.274435" lon="5.357296"><time>2026-05-02T20:29:57Z</time></trkpt>
<trkpt lat="50.273617" lon="5.358247"><time>2026-05-02T20:39:57Z</time></trkpt>
<trkpt lat="50.273812" lon="5.358630"><time>2026-05-02T20:49:57Z</time></trkpt>
<trkpt lat="50.273280" lon="5.359797"><time>2026-05-02T20:59:57Z</time></trkpt>
<trkpt lat="50.271392" lon="5.362957"><time>2026-05-02T21:09:57Z</time></trkpt>
<trkpt lat="50.269161" lon="5.366277"><time>2026-05-02T21:19:57Z</time></trkpt>
<trkpt lat="50.269337" lon="5.367767"><time>2026-05-02T21:29:57Z</time></trkpt>
<trkpt lat="50.269178" lon="5.369434"><time>2026-05-02T21:39:57Z</time></trkpt>
<trkpt lat="50.268740" lon="5.370252"><time>2026-05-02T21:49:57Z</time></trkpt>
<trkpt lat="50.267834" lon="5.372113"><time>2026-05-02T21:59:57Z</time></trkpt>
<trkpt lat="50.267534" lon="5.373509"><time>2026-05-02T22:09:57Z</time></trkpt>
<trkpt lat="50.267200" lon="5.374610"><time>2026-05-02T22:19:57Z</time></trkpt>
<trkpt lat="50.266495" lon="5.375086"><time>2026-05-02T22:29:57Z</time></trkpt>
<trkpt lat="50.264601" lon="5.377767"><time>2026-05-02T22:39:57Z</time></trkpt>
<trkpt lat="50.262375" lon="5.381465"><time>2026-05-02T22:49:57Z</time></trkpt>
<trkpt lat="50.261107" lon="5.383626"><time>2026-05-02T22:59:57Z</time></trkpt>
<trkpt lat="50.258139" lon="5.386761"><time>2026-05-02T23:09:57Z</time></trkpt>
<trkpt lat="50.257293" lon="5.387879"><time>2026-05-02T23:19:57Z</time></trkpt>
<trkpt lat="50.253563" lon="5.387644"><time>2026-05-02T23:29:57Z</time></trkpt>
<trkpt lat="50.251771" lon="5.390088"><time>2026-05-02T23:39:57Z</time></trkpt>
</trkseg>
</trk>
</gpx>